createdAt,value
2018-11-13T00:00:29.415Z,76.83
2018-11-13T00:02:59.355Z,77.21
2018-11-13T00:05:29.027Z,77.75
2018-11-13T00:07:58.519Z,78.47
2018-11-13T00:10:27.879Z,78.77
2018-11-13T00:12:57.252Z,77.52
2018-11-13T00:15:26.668Z,78.42
2018-11-13T00:17:55.967Z,78.26
2018-11-13T00:20:25.375Z,77.51
2018-11-13T00:22:56.769Z,76.88
2018-11-13T00:25:26.071Z,76.01
2018-11-13T00:27:55.389Z,77.28
2018-11-13T00:30:25.336Z,76.74
2018-11-13T00:32:54.482Z,76.49
2018-11-13T00:35:23.918Z,76.21
2018-11-13T00:37:53.417Z,75.80
2018-11-13T00:40:22.723Z,77.01
2018-11-13T00:42:52.083Z,76.59
2018-11-13T00:45:21.842Z,76.00
2018-11-13T00:47:51.129Z,76.05
2018-11-13T00:50:21.144Z,76.86
2018-11-13T00:52:52.064Z,77.96
2018-11-13T00:55:21.423Z,77.62
2018-11-13T00:57:51.221Z,77.49
2018-11-13T01:00:21.956Z,78.32
2018-11-13T01:02:51.507Z,78.39
2018-11-13T01:05:21.684Z,78.09
2018-11-13T01:07:52.139Z,77.63
2018-11-13T01:10:22.244Z,78.60
2018-11-13T01:12:51.811Z,78.33
2018-11-13T01:15:21.795Z,78.22
2018-11-13T01:17:51.455Z,77.88
2018-11-13T01:20:21.449Z,78.28
2018-11-13T01:22:50.904Z,78.30
2018-11-13T01:25:20.218Z,79.49
2018-11-13T01:27:49.507Z,79.00
2018-11-13T01:30:18.937Z,80.63
2018-11-13T01:32:48.222Z,80.79
2018-11-13T01:35:18.703Z,79.93
2018-11-13T01:37:48.126Z,79.15
2018-11-13T01:40:19.864Z,78.98
2018-11-13T01:42:49.257Z,79.10
2018-11-13T01:45:19.713Z,79.08
2018-11-13T01:47:49.052Z,79.05
2018-11-13T01:50:19.000Z,78.51
2018-11-13T01:52:48.297Z,78.28
2018-11-13T01:55:18.018Z,79.11
2018-11-13T01:57:47.462Z,78.08
2018-11-13T02:00:19.690Z,77.80
2018-11-13T02:02:50.261Z,78.05
2018-11-13T02:05:20.801Z,78.18
2018-11-13T02:07:50.575Z,78.06
2018-11-13T02:10:20.313Z,78.58
2018-11-13T02:12:50.045Z,78.71
2018-11-13T02:15:19.864Z,77.60
2018-11-13T02:17:49.254Z,77.50
2018-11-13T02:20:20.110Z,77.69
2018-11-13T02:22:49.478Z,78.08
2018-11-13T02:25:19.864Z,78.17
2018-11-13T02:27:49.593Z,78.66
2018-11-13T02:30:20.424Z,78.47
2018-11-13T02:32:50.434Z,78.89
2018-11-13T02:35:20.043Z,79.08
2018-11-13T02:37:49.338Z,80.19
2018-11-13T02:40:19.053Z,79.87
2018-11-13T02:42:48.331Z,79.56
2018-11-13T02:45:19.117Z,79.10
2018-11-13T02:47:48.531Z,79.09
2018-11-13T02:50:21.234Z,79.61
2018-11-13T02:52:51.228Z,79.67
2018-11-13T02:55:21.076Z,79.61
2018-11-13T02:57:50.428Z,80.40
2018-11-13T03:00:21.202Z,80.16
2018-11-13T03:02:50.902Z,80.14
2018-11-13T03:05:21.299Z,79.95
2018-11-13T03:07:50.641Z,79.47
2018-11-13T03:10:20.471Z,79.16
2018-11-13T03:12:49.881Z,79.74
2018-11-13T03:15:20.878Z,80.05
2018-11-13T03:17:50.253Z,79.74
2018-11-13T03:20:20.399Z,79.96
2018-11-13T03:22:50.366Z,79.89
2018-11-13T03:25:20.988Z,78.47
2018-11-13T03:27:50.299Z,78.76
2018-11-13T03:30:23.750Z,78.57
2018-11-13T03:32:53.895Z,78.29
2018-11-13T03:35:23.194Z,78.01
2018-11-13T03:37:52.513Z,78.76
2018-11-13T03:40:21.856Z,79.63
2018-11-13T03:42:51.690Z,78.63
2018-11-13T03:45:21.326Z,78.26
2018-11-13T03:47:50.700Z,78.73
2018-11-13T03:50:21.227Z,78.86
2018-11-13T03:52:51.107Z,78.39
2018-11-13T03:55:21.063Z,78.83
2018-11-13T03:57:51.063Z,78.62
2018-11-13T04:00:22.713Z,78.10
2018-11-13T04:02:52.088Z,78.65
2018-11-13T04:05:22.148Z,78.39
2018-11-13T04:07:53.109Z,79.72
2018-11-13T04:10:23.269Z,79.50
2018-11-13T04:12:52.564Z,79.65
2018-11-13T04:15:22.963Z,80.40
2018-11-13T04:17:52.252Z,80.41
2018-11-13T04:20:22.334Z,80.68
2018-11-13T04:22:51.770Z,80.76
2018-11-13T04:25:21.102Z,80.18
2018-11-13T04:27:50.404Z,79.91
2018-11-13T04:30:20.254Z,79.96
2018-11-13T04:32:49.555Z,79.84
2018-11-13T04:35:19.196Z,80.38
2018-11-13T04:37:48.526Z,80.94
2018-11-13T04:40:19.150Z,80.79
2018-11-13T04:42:49.827Z,80.66
2018-11-13T04:45:20.382Z,81.10
2018-11-13T04:47:50.609Z,82.20
2018-11-13T04:50:21.011Z,82.54
2018-11-13T04:52:50.286Z,82.58
2018-11-13T04:55:20.049Z,83.15
2018-11-13T04:57:49.955Z,81.50
2018-11-13T05:00:20.683Z,81.51
2018-11-13T05:02:50.060Z,81.43
2018-11-13T05:05:20.037Z,81.75
2018-11-13T05:07:53.554Z,81.50
2018-11-13T05:10:23.215Z,81.20
2018-11-13T05:12:52.590Z,81.19
2018-11-13T05:15:21.916Z,81.46
2018-11-13T05:17:51.226Z,81.45
2018-11-13T05:20:20.588Z,81.37
2018-11-13T05:22:49.889Z,80.73
2018-11-13T05:25:20.651Z,81.62
2018-11-13T05:27:49.911Z,82.57
2018-11-13T05:30:23.122Z,82.48
2018-11-13T05:32:52.585Z,83.28
2018-11-13T05:35:22.603Z,83.22
2018-11-13T05:37:52.010Z,83.65
2018-11-13T05:40:22.829Z,83.46
2018-11-13T05:42:52.173Z,83.51
2018-11-13T05:45:25.731Z,84.85
2018-11-13T05:47:55.425Z,84.90
2018-11-13T05:50:24.738Z,85.22
2018-11-13T05:52:54.866Z,84.52
2018-11-13T05:55:24.222Z,84.18
2018-11-13T05:57:53.498Z,84.18
2018-11-13T06:00:27.514Z,84.69
2018-11-13T06:02:57.146Z,83.40
2018-11-13T06:05:26.485Z,82.85
2018-11-13T06:07:56.334Z,83.42
2018-11-13T06:10:25.612Z,83.20
2018-11-13T06:12:54.967Z,82.52
2018-11-13T06:15:24.291Z,81.74
2018-11-13T06:17:53.638Z,81.32
2018-11-13T06:20:22.905Z,81.31
2018-11-13T06:22:52.266Z,80.92
2018-11-13T06:25:21.528Z,81.30
2018-11-13T06:27:50.838Z,80.83
2018-11-13T06:30:23.111Z,81.02
2018-11-13T06:32:52.848Z,80.83
2018-11-13T06:35:22.129Z,79.88
2018-11-13T06:37:51.418Z,79.89
2018-11-13T06:40:20.747Z,79.81
2018-11-13T06:42:50.010Z,79.07
2018-11-13T06:45:20.879Z,79.36
2018-11-13T06:47:50.627Z,79.74
2018-11-13T06:50:19.988Z,80.04
2018-11-13T06:52:50.271Z,79.66
2018-11-13T06:55:25.483Z,80.38
2018-11-13T06:57:54.841Z,81.89
2018-11-13T07:00:24.129Z,82.34
2018-11-13T07:02:53.583Z,81.96
2018-11-13T07:05:22.959Z,82.56
2018-11-13T07:07:58.880Z,82.91
2018-11-13T07:10:29.522Z,83.43
2018-11-13T07:12:59.525Z,83.28
2018-11-13T07:15:30.036Z,82.60
2018-11-13T07:18:00.573Z,82.02
2018-11-13T07:20:31.114Z,82.90
2018-11-13T07:23:00.380Z,82.88
2018-11-13T07:25:29.839Z,81.92
2018-11-13T07:27:59.094Z,82.26
2018-11-13T07:30:28.645Z,81.90
2018-11-13T07:32:58.218Z,82.02
2018-11-13T07:35:27.487Z,81.86
2018-11-13T07:37:58.176Z,82.44
2018-11-13T07:40:27.562Z,81.97
2018-11-13T07:42:57.180Z,81.39
2018-11-13T07:45:26.492Z,80.40
2018-11-13T07:47:55.937Z,80.64
2018-11-13T07:50:25.357Z,80.94
2018-11-13T07:52:54.662Z,80.93
2018-11-13T07:55:24.057Z,81.69
2018-11-13T07:57:53.359Z,81.98
2018-11-13T08:00:23.946Z,81.75
2018-11-13T08:02:54.822Z,81.84
2018-11-13T08:05:24.243Z,82.33
2018-11-13T08:07:53.545Z,82.23
2018-11-13T08:10:22.835Z,81.27
2018-11-13T08:12:52.134Z,81.44
2018-11-13T08:15:21.398Z,82.45
2018-11-13T08:17:51.007Z,80.84
2018-11-13T08:20:20.360Z,80.07
2018-11-13T08:22:49.691Z,79.09
2018-11-13T08:25:19.065Z,78.45
2018-11-13T08:27:48.335Z,77.98
2018-11-13T08:30:19.078Z,78.06
2018-11-13T08:32:48.819Z,78.24
2018-11-13T08:35:18.104Z,79.35
2018-11-13T08:37:47.406Z,80.66
2018-11-13T08:40:18.221Z,78.94
2018-11-13T08:42:47.997Z,80.42
2018-11-13T08:45:17.593Z,79.16
2018-11-13T08:47:46.907Z,78.02
2018-11-13T08:50:16.823Z,78.16
2018-11-13T08:52:46.695Z,78.53
2018-11-13T08:55:16.389Z,77.88
2018-11-13T08:57:45.806Z,77.91
2018-11-13T09:00:17.212Z,78.56
2018-11-13T09:02:47.071Z,78.77
2018-11-13T09:05:16.586Z,78.72
2018-11-13T09:07:46.262Z,78.42
2018-11-13T09:10:17.365Z,78.31
2018-11-13T09:12:47.179Z,77.99
2018-11-13T09:15:17.906Z,77.81
2018-11-13T09:17:47.222Z,75.77
2018-11-13T09:20:18.383Z,76.29
2018-11-13T09:22:47.925Z,77.08
2018-11-13T09:25:19.523Z,76.32
2018-11-13T09:27:48.833Z,77.49
2018-11-13T09:30:19.523Z,76.30
2018-11-13T09:32:49.321Z,77.11
2018-11-13T09:35:19.329Z,76.56
2018-11-13T09:37:48.596Z,76.54
2018-11-13T09:40:20.224Z,77.30
2018-11-13T09:42:51.285Z,76.21
2018-11-13T09:45:20.661Z,73.40
2018-11-13T09:47:50.042Z,72.25
2018-11-13T09:50:20.450Z,70.90
2018-11-13T09:52:51.253Z,62.32
2018-11-13T09:55:21.782Z,55.29
2018-11-13T09:57:51.200Z,52.10
2018-11-13T10:00:26.552Z,48.53
2018-11-13T10:02:58.658Z,45.25
2018-11-13T10:05:27.608Z,45.28
2018-11-13T10:07:57.176Z,53.48
2018-11-13T10:10:27.231Z,60.58
2018-11-13T10:12:56.651Z,64.43
2018-11-13T10:15:28.741Z,67.90
2018-11-13T10:17:59.503Z,69.75
2018-11-13T10:20:29.051Z,70.75
2018-11-13T10:22:59.251Z,71.63
2018-11-13T10:25:28.689Z,70.83
2018-11-13T10:27:58.022Z,70.38
2018-11-13T10:30:27.328Z,69.88
2018-11-13T10:32:56.656Z,68.11
2018-11-13T10:35:26.880Z,64.26
2018-11-13T10:37:56.179Z,65.75
2018-11-13T10:40:26.253Z,66.58
2018-11-13T10:42:55.460Z,65.88
2018-11-13T10:45:26.467Z,66.81
2018-11-13T10:47:55.847Z,67.62
2018-11-13T10:50:26.274Z,70.49
2018-11-13T10:52:56.172Z,71.09
2018-11-13T10:55:25.542Z,69.76
2018-11-13T10:57:55.041Z,70.30
2018-11-13T11:00:32.867Z,71.57
2018-11-13T11:03:09.651Z,70.32
2018-11-13T11:05:38.970Z,68.96
2018-11-13T11:08:08.330Z,69.84
2018-11-13T11:10:37.627Z,70.37
2018-11-13T11:13:07.159Z,69.96
2018-11-13T11:15:36.414Z,70.77
2018-11-13T11:18:05.780Z,70.68
2018-11-13T11:20:35.501Z,69.78
2018-11-13T11:23:04.831Z,68.30
2018-11-13T11:25:34.228Z,65.89
2018-11-13T11:28:03.802Z,57.71
2018-11-13T11:30:33.095Z,51.73
2018-11-13T11:33:02.460Z,49.70
2018-11-13T11:35:31.794Z,51.67
2018-11-13T11:38:01.095Z,55.88
2018-11-13T11:40:30.464Z,58.83
2018-11-13T11:43:00.455Z,62.25
2018-11-13T11:45:29.780Z,63.07
2018-11-13T11:47:59.082Z,63.21
2018-11-13T11:50:28.448Z,65.65
2018-11-13T11:52:57.784Z,65.26
2018-11-13T11:55:27.061Z,65.35
2018-11-13T11:57:56.424Z,65.27
2018-11-13T12:00:30.797Z,65.09
2018-11-13T12:03:00.308Z,65.08
2018-11-13T12:05:29.939Z,65.08
2018-11-13T12:07:59.295Z,65.70
2018-11-13T12:10:28.636Z,65.67
2018-11-13T12:12:58.197Z,66.67
2018-11-13T12:15:27.526Z,64.73
2018-11-13T12:17:56.863Z,64.20
2018-11-13T12:20:29.147Z,65.00
2018-11-13T12:22:59.105Z,65.56
2018-11-13T12:25:28.729Z,66.08
2018-11-13T12:27:58.271Z,65.57
2018-11-13T12:30:27.745Z,65.36
2018-11-13T12:32:57.518Z,65.40
2018-11-13T12:35:27.078Z,64.33
2018-11-13T12:37:56.513Z,64.73
2018-11-13T12:40:26.438Z,65.12
2018-11-13T12:42:55.735Z,64.55
2018-11-13T12:45:25.181Z,62.79
2018-11-13T12:47:54.441Z,58.37
2018-11-13T12:50:23.745Z,56.21
2018-11-13T12:52:53.089Z,54.57
2018-11-13T12:55:23.614Z,56.19
2018-11-13T12:57:53.170Z,51.80
2018-11-13T13:00:24.916Z,49.42
2018-11-13T13:02:54.637Z,48.54
2018-11-13T13:05:23.990Z,48.42
2018-11-13T13:07:53.683Z,49.71
2018-11-13T13:10:23.078Z,52.26
2018-11-13T13:12:52.389Z,51.97
2018-11-13T13:15:21.725Z,54.88
2018-11-13T13:17:51.019Z,56.38
2018-11-13T13:20:22.826Z,57.85
2018-11-13T13:22:52.384Z,58.84
2018-11-13T13:25:23.227Z,59.46
2018-11-13T13:27:52.535Z,59.16
2018-11-13T13:30:23.267Z,58.96
2018-11-13T13:32:52.741Z,59.88
2018-11-13T13:36:10.095Z,63.07
2018-11-13T13:38:39.472Z,64.85
2018-11-13T13:41:08.724Z,65.87
2018-11-13T13:43:37.991Z,65.67
2018-11-13T13:46:07.663Z,66.18
2018-11-13T13:48:36.927Z,67.37
2018-11-13T13:51:06.555Z,67.17
2018-11-13T13:53:35.853Z,68.53
2018-11-13T13:56:05.305Z,68.79
2018-11-13T13:58:34.613Z,67.74
2018-11-13T14:01:04.050Z,68.49
2018-11-13T14:03:34.783Z,68.59
2018-11-13T14:06:02.880Z,69.63
2018-11-13T14:08:32.557Z,68.70
2018-11-13T14:11:01.846Z,68.22
2018-11-13T14:13:31.180Z,68.55
2018-11-13T14:16:00.530Z,66.31
2018-11-13T14:18:29.821Z,62.76
2018-11-13T14:20:59.183Z,60.77
2018-11-13T14:23:28.416Z,59.68
2018-11-13T14:25:57.779Z,59.23
2018-11-13T14:28:27.097Z,61.62
2018-11-13T14:30:56.871Z,63.26
2018-11-13T14:33:26.418Z,64.84
2018-11-13T14:35:55.863Z,64.46
2018-11-13T14:38:25.170Z,64.06
2018-11-13T14:40:54.487Z,65.01
2018-11-13T14:43:23.773Z,64.54
2018-11-13T14:45:53.232Z,64.41
2018-11-13T14:48:22.582Z,63.95
2018-11-13T14:50:51.961Z,64.49
2018-11-13T14:53:21.839Z,65.30
2018-11-13T14:55:51.148Z,66.62
2018-11-13T14:58:20.485Z,68.61
2018-11-13T15:00:49.885Z,69.42
2018-11-13T15:03:19.332Z,69.33
2018-11-13T15:05:48.609Z,68.93
2018-11-13T15:08:18.005Z,69.13
2018-11-13T15:10:50.280Z,68.72
2018-11-13T15:13:20.655Z,70.21
2018-11-13T15:15:49.996Z,70.34
2018-11-13T15:18:19.368Z,70.19
2018-11-13T15:20:49.789Z,70.33
2018-11-13T15:23:19.114Z,70.12
2018-11-13T15:25:48.443Z,70.67
2018-11-13T15:28:18.022Z,70.51
2018-11-13T15:30:49.545Z,71.55
2018-11-13T15:33:23.762Z,71.86
2018-11-13T15:35:53.109Z,70.88
2018-11-13T15:38:22.420Z,71.18
2018-11-13T15:40:51.808Z,70.76
2018-11-13T15:43:21.132Z,71.01
2018-11-13T15:45:50.420Z,71.00
2018-11-13T15:48:20.019Z,70.70
2018-11-13T15:50:49.315Z,70.80
2018-11-13T15:53:18.664Z,70.89
2018-11-13T15:55:48.452Z,70.84
2018-11-13T15:58:17.799Z,71.06
2018-11-13T16:00:47.142Z,70.99
2018-11-13T16:03:20.497Z,71.11
2018-11-13T16:05:51.058Z,70.81
2018-11-13T16:08:20.392Z,71.45
2018-11-13T16:10:50.219Z,71.48
2018-11-13T16:13:19.577Z,71.13
2018-11-13T16:15:48.890Z,71.23
2018-11-13T16:18:19.956Z,71.17
2018-11-13T16:20:49.267Z,71.28
2018-11-13T16:23:18.553Z,71.29
2018-11-13T16:25:47.855Z,70.77
2018-11-13T16:28:17.217Z,71.68
2018-11-13T16:30:46.728Z,71.92
2018-11-13T16:33:16.194Z,70.92
2018-11-13T16:35:45.532Z,71.48
2018-11-13T16:38:14.959Z,71.25
2018-11-13T16:40:44.234Z,71.54
2018-11-13T16:43:13.524Z,72.51
2018-11-13T16:45:42.800Z,72.67
2018-11-13T16:48:12.173Z,72.55
2018-11-13T16:50:42.325Z,72.50
2018-11-13T16:53:11.723Z,73.17
2018-11-13T16:55:46.728Z,72.03
2018-11-13T16:58:16.804Z,73.17
2018-11-13T17:00:46.250Z,72.52
2018-11-13T17:03:15.494Z,72.41
2018-11-13T17:05:44.885Z,72.82
2018-11-13T17:08:14.128Z,72.85
2018-11-13T17:10:44.230Z,72.67
2018-11-13T17:13:13.522Z,72.25
2018-11-13T17:15:42.839Z,71.74
2018-11-13T17:18:13.726Z,71.92
2018-11-13T17:20:42.383Z,71.33
2018-11-13T17:23:11.702Z,71.57
2018-11-13T17:25:41.018Z,72.18
2018-11-13T17:28:10.371Z,72.19
2018-11-13T17:30:39.750Z,72.28
2018-11-13T17:33:10.809Z,72.61
2018-11-13T17:35:40.175Z,72.27
2018-11-13T17:38:09.524Z,71.67
2018-11-13T17:40:39.122Z,70.95
2018-11-13T17:43:08.855Z,71.73
2018-11-13T17:45:40.345Z,72.31
2018-11-13T17:48:11.933Z,71.78
2018-11-13T17:50:42.657Z,71.76
2018-11-13T17:53:12.688Z,72.20
2018-11-13T17:55:42.196Z,72.39
2018-11-13T17:58:14.185Z,71.84
2018-11-13T18:00:44.915Z,71.80
2018-11-13T18:03:15.702Z,72.80
2018-11-13T18:05:45.888Z,72.39
2018-11-13T18:08:15.190Z,72.15
2018-11-13T18:10:45.722Z,72.48
2018-11-13T18:13:15.192Z,72.16
2018-11-13T18:15:44.584Z,72.07
2018-11-13T18:18:14.358Z,71.45
2018-11-13T18:20:43.683Z,71.42
2018-11-13T18:23:13.097Z,71.77
2018-11-13T18:25:42.475Z,72.09
2018-11-13T18:28:12.130Z,72.49
2018-11-13T18:30:41.450Z,72.22
2018-11-13T18:33:10.865Z,71.90
2018-11-13T18:35:40.832Z,71.60
2018-11-13T18:38:12.141Z,71.99
2018-11-13T18:40:41.496Z,71.36
2018-11-13T18:43:12.084Z,71.13
2018-11-13T18:45:42.268Z,71.52
2018-11-13T18:48:11.636Z,72.29
2018-11-13T18:50:42.522Z,72.76
2018-11-13T18:53:12.017Z,72.29
2018-11-13T18:55:41.854Z,71.93
2018-11-13T18:58:11.663Z,72.97
2018-11-13T19:00:41.707Z,73.55
2018-11-13T19:03:12.660Z,72.98
2018-11-13T19:05:42.029Z,73.27
2018-11-13T19:08:11.505Z,73.75
2018-11-13T19:10:43.220Z,73.39
2018-11-13T19:13:16.673Z,73.67
2018-11-13T19:15:49.946Z,72.89
2018-11-13T19:18:20.450Z,73.24
2018-11-13T19:20:50.074Z,73.09
2018-11-13T19:23:20.440Z,72.96
2018-11-13T19:25:49.975Z,73.69
2018-11-13T19:28:19.460Z,73.82
2018-11-13T19:30:49.372Z,73.82
2018-11-13T19:33:19.015Z,73.83
2018-11-13T19:35:48.700Z,73.88
2018-11-13T19:38:18.120Z,73.76
2018-11-13T19:40:48.017Z,73.13
2018-11-13T19:43:17.459Z,73.09
2018-11-13T19:45:47.042Z,73.61
2018-11-13T19:48:16.797Z,73.54
2018-11-13T19:50:46.327Z,73.11
2018-11-13T19:53:16.168Z,73.50
2018-11-13T19:55:46.060Z,74.06
2018-11-13T19:58:15.627Z,73.90
2018-11-13T20:00:45.136Z,74.37
2018-11-13T20:03:14.544Z,74.08
2018-11-13T20:05:44.675Z,74.87
2018-11-13T20:08:14.122Z,74.28
2018-11-13T20:10:43.627Z,73.86
2018-11-13T20:13:19.457Z,73.92
2018-11-13T20:15:48.847Z,74.24
2018-11-13T20:18:18.212Z,73.41
2018-11-13T20:20:47.928Z,74.55
2018-11-13T20:23:17.332Z,74.85
2018-11-13T20:25:46.677Z,75.17
2018-11-13T20:28:16.216Z,74.24
2018-11-13T20:30:45.644Z,74.47
2018-11-13T20:33:15.039Z,73.86
2018-11-13T20:35:44.375Z,74.38
2018-11-13T20:38:13.744Z,74.08
2018-11-13T20:40:43.112Z,73.49
2018-11-13T20:43:13.138Z,73.10
2018-11-13T20:45:42.678Z,74.36
2018-11-13T20:48:12.097Z,74.91
2018-11-13T20:50:41.562Z,74.52
2018-11-13T20:53:10.982Z,74.73
2018-11-13T20:55:40.427Z,74.74
2018-11-13T20:58:09.847Z,74.24
2018-11-13T21:00:39.250Z,75.40
2018-11-13T21:03:08.669Z,74.74
2018-11-13T21:05:38.660Z,74.79
2018-11-13T21:08:08.402Z,74.69
2018-11-13T21:10:39.136Z,73.69
2018-11-13T21:13:09.532Z,73.68
2018-11-13T21:15:39.004Z,74.33
2018-11-13T21:18:08.387Z,74.90
2018-11-13T21:20:37.830Z,75.24
2018-11-13T21:23:07.227Z,74.93
2018-11-13T21:25:36.972Z,75.05
2018-11-13T21:28:06.561Z,74.95
2018-11-13T21:30:35.928Z,75.23
2018-11-13T21:33:06.014Z,75.82
2018-11-13T21:35:35.521Z,75.34
2018-11-13T21:38:05.097Z,75.29
2018-11-13T21:40:34.632Z,75.34
2018-11-13T21:43:04.036Z,75.77
2018-11-13T21:45:33.434Z,76.06
2018-11-13T21:48:02.872Z,75.28
2018-11-13T21:50:32.207Z,76.24
2018-11-13T21:53:01.632Z,76.78
2018-11-13T21:55:31.111Z,76.62
2018-11-13T21:58:00.506Z,76.44
2018-11-13T22:00:32.544Z,76.15
2018-11-13T22:03:03.919Z,76.51
2018-11-13T22:05:36.235Z,76.35
2018-11-13T22:08:05.806Z,75.54
2018-11-13T22:10:35.147Z,76.23
2018-11-13T22:13:04.602Z,76.78
2018-11-13T22:15:34.051Z,77.10
2018-11-13T22:18:03.556Z,76.51
2018-11-13T22:20:33.098Z,77.05
2018-11-13T22:23:02.532Z,76.39
2018-11-13T22:25:31.850Z,77.96
2018-11-13T22:28:01.716Z,78.14
2018-11-13T22:30:32.235Z,77.91
2018-11-13T22:33:01.693Z,78.85
2018-11-13T22:35:31.040Z,78.48
2018-11-13T22:38:00.422Z,78.42
2018-11-13T22:40:29.944Z,78.53
2018-11-13T22:43:00.107Z,78.64
2018-11-13T22:45:30.101Z,79.51
2018-11-13T22:47:59.687Z,78.68
2018-11-13T22:50:30.805Z,78.25
2018-11-13T22:53:00.116Z,78.43
2018-11-13T22:55:29.451Z,77.89
2018-11-13T22:58:00.089Z,78.58
2018-11-13T23:00:40.990Z,78.41
2018-11-13T23:03:12.265Z,79.36
2018-11-13T23:05:42.435Z,80.16
2018-11-13T23:08:13.241Z,80.29
2018-11-13T23:10:42.577Z,80.05
2018-11-13T23:13:12.059Z,80.07
2018-11-13T23:15:41.553Z,79.71
2018-11-13T23:18:11.006Z,79.35
2018-11-13T23:20:40.366Z,79.95
2018-11-13T23:23:09.767Z,79.56
2018-11-13T23:25:39.069Z,78.97
2018-11-13T23:28:08.452Z,78.57
2018-11-13T23:30:38.277Z,78.71
2018-11-13T23:33:08.153Z,79.41
2018-11-13T23:35:37.706Z,79.67
2018-11-13T23:38:07.002Z,79.30
2018-11-13T23:40:36.300Z,80.44
2018-11-13T23:43:05.739Z,80.15
2018-11-13T23:45:35.114Z,79.62
2018-11-13T23:48:04.409Z,79.91
2018-11-13T23:50:33.770Z,79.04
2018-11-13T23:53:03.773Z,79.36
2018-11-13T23:55:33.158Z,79.42
2018-11-13T23:58:02.572Z,79.53
